Key West, FL (33045)

6:08 PM EDT on August 23, 2016 (GMT -0400)
| | Change Station

Elev -9999 ft 0.00 °N, 0.00 °E | Updated

Clear
Clear
86 °F
Feels Like 97 °F
N
8
Wind Variable Wind from NE
Gusts mph

Today
High -- | Low -- °F
--% Chance of Precip.
Yesterday
High -- | Low -- °F
Precip. -- in
Pressure 30.06 in
Visibility 10.0 miles
Clouds Scattered Clouds 6000 ft
Scattered Clouds 8500 ft
Heat Index 97 °F
Dew Point 77 °F
Humidity 74%
Rainfall --
Snow Depth Not available.
7:05 AM 7:53 PM
Waning Gibbous, 64% visible
METAR KEYW 232153Z 04004KT 10SM SCT060 SCT085 30/27 A3006 RMK AO2 RAE2055 TSE2056 SLP179 P0000 T03000267
Pressure 30.06 in
Visibility 10.0 miles
Clouds Scattered Clouds 6000 ft
Scattered Clouds 8500 ft
Heat Index 97 °F
Dew Point 77 °F
Humidity 74%
Rainfall --
Snow Depth Not available.
7:05 AM 7:53 PM
Waning Gibbous, 64% visible
METAR KEYW 232153Z 04004KT 10SM SCT060 SCT085 30/27 A3006 RMK AO2 RAE2055 TSE2056 SLP179 P0000 T03000267
We continue to monitor Invest 99L for the possibility of development into a tropical depression or storm as it approaches the Lesser Antilles, then heads in the general direction of the Bahamas late in the week.

Invest 99L will potentially be impactful in the near-future as it spreads locally heavy rain into the Leeward Islands and eventually Puerto Rico. A flash flood watch is in effect for the Virgin Islands and Puerto Rico from overnight tonight until noon on Thursday.

10-Day Weather Forecast

Almanac

Astronomy

Aug. 23, 2016 Rise Set
Actual Time
Civil Twilight
Nautical Twilight
Astronomical Twilight
Moon
Length of Visible Light
Length of Day
Tomorrow will be .
, % of the Moon is Illuminated

Today's Extremes

State Highs State Lows

Community

WunderPhotos

Upload Photos

1,934,476 photos uploaded!

WunderBlog® & News

Nearby

Air Quality

  Air Quality AQ Index Pollutant
Not available.

Snow Depth

Station Depth Elevation

Earthquake Activity

City Distance Mag. Time & Date
Minimum magnitude displayed is 2.5.

Coastal Water Temperatures

Place Temperature

Stations

Nearby Weather Stations

Station Location Temp. Windchill Dew Point Humidity Wind Precip. Elev Updated Type
                   

Watches & Warnings

There are currently no watches in effect.